sensor_id;sensor_type;location;lat;lon;timestamp;temperature;humidity
38090;DHT22;23904;52.322;10.232;2024-01-11T00:01:03;-5.70;99.90
38090;DHT22;23904;52.322;10.232;2024-01-11T00:03:29;-5.70;99.90
38090;DHT22;23904;52.322;10.232;2024-01-11T00:05:54;-5.70;99.90
38090;DHT22;23904;52.322;10.232;2024-01-11T00:08:20;-5.70;99.90
38090;DHT22;23904;52.322;10.232;2024-01-11T00:10:45;-5.80;99.90
38090;DHT22;23904;52.322;10.232;2024-01-11T00:13:11;-5.80;99.90
38090;DHT22;23904;52.322;10.232;2024-01-11T00:15:37;-5.80;99.90
38090;DHT22;23904;52.322;10.232;2024-01-11T00:18:02;-5.80;99.90
38090;DHT22;23904;52.322;10.232;2024-01-11T00:20:28;-5.80;99.90
38090;DHT22;23904;52.322;10.232;2024-01-11T00:22:54;-5.80;99.90
38090;DHT22;23904;52.322;10.232;2024-01-11T00:25:19;-5.90;99.90
38090;DHT22;23904;52.322;10.232;2024-01-11T00:27:45;-6.00;99.90
38090;DHT22;23904;52.322;10.232;2024-01-11T00:30:10;-6.00;99.90
38090;DHT22;23904;52.322;10.232;2024-01-11T00:32:36;-6.00;99.90
38090;DHT22;23904;52.322;10.232;2024-01-11T00:35:01;-6.00;99.90
38090;DHT22;23904;52.322;10.232;2024-01-11T00:37:27;-6.00;99.90
38090;DHT22;23904;52.322;10.232;2024-01-11T00:39:52;-6.00;99.90
38090;DHT22;23904;52.322;10.232;2024-01-11T00:42:18;-6.00;99.90
38090;DHT22;23904;52.322;10.232;2024-01-11T00:44:43;-6.00;99.90
38090;DHT22;23904;52.322;10.232;2024-01-11T00:47:10;-6.00;99.90
38090;DHT22;23904;52.322;10.232;2024-01-11T00:49:37;-6.00;99.90
38090;DHT22;23904;52.322;10.232;2024-01-11T00:52:03;-6.00;99.90
38090;DHT22;23904;52.322;10.232;2024-01-11T00:54:28;-6.00;99.90
38090;DHT22;23904;52.322;10.232;2024-01-11T00:56:54;-6.10;99.90
38090;DHT22;23904;52.322;10.232;2024-01-11T00:59:20;-6.10;99.90
38090;DHT22;23904;52.322;10.232;2024-01-11T01:01:49;-6.10;99.90
38090;DHT22;23904;52.322;10.232;2024-01-11T01:04:14;-6.10;99.90
38090;DHT22;23904;52.322;10.232;2024-01-11T01:06:41;-6.10;99.90
38090;DHT22;23904;52.322;10.232;2024-01-11T01:09:07;-6.10;99.90
38090;DHT22;23904;52.322;10.232;2024-01-11T01:11:32;-6.20;99.90
38090;DHT22;23904;52.322;10.232;2024-01-11T01:13:58;-6.20;99.90
38090;DHT22;23904;52.322;10.232;2024-01-11T01:16:24;-6.30;99.90
38090;DHT22;23904;52.322;10.232;2024-01-11T01:18:49;-6.30;99.90
38090;DHT22;23904;52.322;10.232;2024-01-11T01:21:15;-6.30;99.90
38090;DHT22;23904;52.322;10.232;2024-01-11T01:23:40;-6.30;99.90
38090;DHT22;23904;52.322;10.232;2024-01-11T01:26:06;-6.30;99.90
38090;DHT22;23904;52.322;10.232;2024-01-11T01:28:32;-6.40;99.90
38090;DHT22;23904;52.322;10.232;2024-01-11T01:30:58;-6.40;99.90
38090;DHT22;23904;52.322;10.232;2024-01-11T01:33:23;-6.30;99.90
38090;DHT22;23904;52.322;10.232;2024-01-11T01:35:49;-6.30;99.90
38090;DHT22;23904;52.322;10.232;2024-01-11T01:38:14;-6.20;99.90
38090;DHT22;23904;52.322;10.232;2024-01-11T01:40:40;-6.20;99.90
38090;DHT22;23904;52.322;10.232;2024-01-11T01:43:08;-6.20;99.90
38090;DHT22;23904;52.322;10.232;2024-01-11T01:45:38;-6.10;99.90
38090;DHT22;23904;52.322;10.232;2024-01-11T01:48:04;-6.20;99.90
38090;DHT22;23904;52.322;10.232;2024-01-11T01:50:30;-6.20;99.90
38090;DHT22;23904;52.322;10.232;2024-01-11T01:52:56;-6.20;99.90
38090;DHT22;23904;52.322;10.232;2024-01-11T01:55:23;-6.30;99.90
38090;DHT22;23904;52.322;10.232;2024-01-11T01:57:50;-6.20;99.90
38090;DHT22;23904;52.322;10.232;2024-01-11T02:00:16;-6.10;99.90
38090;DHT22;23904;52.322;10.232;2024-01-11T02:02:46;-6.20;99.90
38090;DHT22;23904;52.322;10.232;2024-01-11T02:05:15;-6.10;99.90
38090;DHT22;23904;52.322;10.232;2024-01-11T02:07:42;-6.10;99.90
38090;DHT22;23904;52.322;10.232;2024-01-11T02:10:07;-6.20;99.90
38090;DHT22;23904;52.322;10.232;2024-01-11T02:12:35;-6.20;99.90
38090;DHT22;23904;52.322;10.232;2024-01-11T02:15:03;-6.30;99.90
38090;DHT22;23904;52.322;10.232;2024-01-11T02:17:32;-6.40;99.90
38090;DHT22;23904;52.322;10.232;2024-01-11T02:19:58;-6.40;99.90
38090;DHT22;23904;52.322;10.232;2024-01-11T02:22:35;-6.40;99.90
38090;DHT22;23904;52.322;10.232;2024-01-11T02:25:01;-6.30;99.90
38090;DHT22;23904;52.322;10.232;2024-01-11T02:27:27;-6.40;99.90
38090;DHT22;23904;52.322;10.232;2024-01-11T02:29:53;-6.40;99.90
38090;DHT22;23904;52.322;10.232;2024-01-11T02:32:19;-6.40;99.90
38090;DHT22;23904;52.322;10.232;2024-01-11T02:34:44;-6.30;99.90
38090;DHT22;23904;52.322;10.232;2024-01-11T02:37:11;-6.30;99.90
38090;DHT22;23904;52.322;10.232;2024-01-11T02:39:37;-6.30;99.90
38090;DHT22;23904;52.322;10.232;2024-01-11T02:42:03;-6.40;99.90
38090;DHT22;23904;52.322;10.232;2024-01-11T02:44:28;-6.40;99.90
38090;DHT22;23904;52.322;10.232;2024-01-11T02:46:54;-6.40;99.90
38090;DHT22;23904;52.322;10.232;2024-01-11T02:49:20;-6.40;99.90
38090;DHT22;23904;52.322;10.232;2024-01-11T02:51:45;-6.40;99.90
38090;DHT22;23904;52.322;10.232;2024-01-11T02:54:11;-6.50;99.90
38090;DHT22;23904;52.322;10.232;2024-01-11T02:56:36;-6.50;99.90
38090;DHT22;23904;52.322;10.232;2024-01-11T02:59:02;-6.50;99.90
38090;DHT22;23904;52.322;10.232;2024-01-11T03:01:27;-6.40;99.90
38090;DHT22;23904;52.322;10.232;2024-01-11T03:03:54;-6.50;99.90
38090;DHT22;23904;52.322;10.232;2024-01-11T03:06:20;-6.50;99.90
38090;DHT22;23904;52.322;10.232;2024-01-11T03:08:48;-6.40;99.90
38090;DHT22;23904;52.322;10.232;2024-01-11T03:11:14;-6.40;99.90
38090;DHT22;23904;52.322;10.232;2024-01-11T03:13:40;-6.40;99.90
38090;DHT22;23904;52.322;10.232;2024-01-11T03:16:05;-6.40;99.90
38090;DHT22;23904;52.322;10.232;2024-01-11T03:18:31;-6.40;99.90
38090;DHT22;23904;52.322;10.232;2024-01-11T03:20:57;-6.50;99.90
38090;DHT22;23904;52.322;10.232;2024-01-11T03:23:22;-6.50;99.90
38090;DHT22;23904;52.322;10.232;2024-01-11T03:25:48;-6.50;99.90
38090;DHT22;23904;52.322;10.232;2024-01-11T03:28:13;-6.50;99.90
38090;DHT22;23904;52.322;10.232;2024-01-11T03:30:39;-6.60;99.90
38090;DHT22;23904;52.322;10.232;2024-01-11T03:33:04;-6.50;99.90
38090;DHT22;23904;52.322;10.232;2024-01-11T03:35:30;-6.50;99.90
38090;DHT22;23904;52.322;10.232;2024-01-11T03:37:56;-6.40;99.90
38090;DHT22;23904;52.322;10.232;2024-01-11T03:40:22;-6.40;99.90
38090;DHT22;23904;52.322;10.232;2024-01-11T03:42:47;-6.40;99.90
38090;DHT22;23904;52.322;10.232;2024-01-11T03:45:13;-6.30;99.90
38090;DHT22;23904;52.322;10.232;2024-01-11T03:47:38;-6.30;99.90
38090;DHT22;23904;52.322;10.232;2024-01-11T03:50:04;-6.30;99.90
38090;DHT22;23904;52.322;10.232;2024-01-11T03:52:30;-6.30;99.90
38090;DHT22;23904;52.322;10.232;2024-01-11T03:54:55;-6.40;99.90
38090;DHT22;23904;52.322;10.232;2024-01-11T03:57:21;-6.50;99.90
38090;DHT22;23904;52.322;10.232;2024-01-11T03:59:47;-6.50;99.90
38090;DHT22;23904;52.322;10.232;2024-01-11T04:02:12;-6.50;99.90
38090;DHT22;23904;52.322;10.232;2024-01-11T04:04:38;-6.50;99.90
38090;DHT22;23904;52.322;10.232;2024-01-11T04:07:03;-6.50;99.90
38090;DHT22;23904;52.322;10.232;2024-01-11T04:09:29;-6.50;99.90
38090;DHT22;23904;52.322;10.232;2024-01-11T04:11:54;-6.50;99.90
38090;DHT22;23904;52.322;10.232;2024-01-11T04:14:20;-6.50;99.90
38090;DHT22;23904;52.322;10.232;2024-01-11T04:16:46;-6.50;99.90
38090;DHT22;23904;52.322;10.232;2024-01-11T04:19:11;-6.50;99.90
38090;DHT22;23904;52.322;10.232;2024-01-11T04:21:37;-6.40;99.90
38090;DHT22;23904;52.322;10.232;2024-01-11T04:24:06;-6.40;99.90
38090;DHT22;23904;52.322;10.232;2024-01-11T04:26:32;-6.40;99.90
38090;DHT22;23904;52.322;10.232;2024-01-11T04:28:57;-6.40;99.90
38090;DHT22;23904;52.322;10.232;2024-01-11T04:31:25;-6.30;99.90
38090;DHT22;23904;52.322;10.232;2024-01-11T04:33:51;-6.30;99.90
38090;DHT22;23904;52.322;10.232;2024-01-11T04:36:17;-6.30;99.90
38090;DHT22;23904;52.322;10.232;2024-01-11T04:38:43;-6.30;99.90
38090;DHT22;23904;52.322;10.232;2024-01-11T04:41:10;-6.40;99.90
38090;DHT22;23904;52.322;10.232;2024-01-11T04:43:41;-6.40;99.90
38090;DHT22;23904;52.322;10.232;2024-01-11T04:46:27;-6.40;99.90
38090;DHT22;23904;52.322;10.232;2024-01-11T04:48:53;-6.30;99.90
38090;DHT22;23904;52.322;10.232;2024-01-11T04:51:19;-6.30;99.90
38090;DHT22;23904;52.322;10.232;2024-01-11T04:53:45;-6.30;99.90
38090;DHT22;23904;52.322;10.232;2024-01-11T04:56:13;-6.30;99.90
38090;DHT22;23904;52.322;10.232;2024-01-11T04:58:40;-6.30;99.90
38090;DHT22;23904;52.322;10.232;2024-01-11T05:01:14;-6.30;99.90
38090;DHT22;23904;52.322;10.232;2024-01-11T05:03:41;-6.30;99.90
38090;DHT22;23904;52.322;10.232;2024-01-11T05:06:07;-6.20;99.90
38090;DHT22;23904;52.322;10.232;2024-01-11T05:08:33;-6.20;99.90
38090;DHT22;23904;52.322;10.232;2024-01-11T05:10:59;-6.30;99.90
38090;DHT22;23904;52.322;10.232;2024-01-11T05:13:24;-6.30;99.90
38090;DHT22;23904;52.322;10.232;2024-01-11T05:15:50;-6.30;99.90
38090;DHT22;23904;52.322;10.232;2024-01-11T05:18:15;-6.40;99.90
38090;DHT22;23904;52.322;10.232;2024-01-11T05:20:41;-6.30;99.90
38090;DHT22;23904;52.322;10.232;2024-01-11T05:23:06;-6.30;99.90
38090;DHT22;23904;52.322;10.232;2024-01-11T05:25:32;-6.40;99.90
38090;DHT22;23904;52.322;10.232;2024-01-11T05:27:59;-6.40;99.90
38090;DHT22;23904;52.322;10.232;2024-01-11T05:30:26;-6.40;99.90
38090;DHT22;23904;52.322;10.232;2024-01-11T05:32:52;-6.40;99.90
38090;DHT22;23904;52.322;10.232;2024-01-11T05:35:18;-6.40;99.90
38090;DHT22;23904;52.322;10.232;2024-01-11T05:37:43;-6.60;99.90
38090;DHT22;23904;52.322;10.232;2024-01-11T05:40:09;-6.60;99.90
38090;DHT22;23904;52.322;10.232;2024-01-11T05:42:34;-6.60;99.90
38090;DHT22;23904;52.322;10.232;2024-01-11T05:45:00;-6.60;99.90
38090;DHT22;23904;52.322;10.232;2024-01-11T05:47:26;-6.70;99.90
38090;DHT22;23904;52.322;10.232;2024-01-11T05:49:51;-6.70;99.90
38090;DHT22;23904;52.322;10.232;2024-01-11T05:52:17;-6.70;99.90
38090;DHT22;23904;52.322;10.232;2024-01-11T05:54:42;-6.70;99.90
38090;DHT22;23904;52.322;10.232;2024-01-11T05:57:08;-6.70;99.90
38090;DHT22;23904;52.322;10.232;2024-01-11T05:59:33;-6.60;99.90
38090;DHT22;23904;52.322;10.232;2024-01-11T06:01:59;-6.80;99.90
38090;DHT22;23904;52.322;10.232;2024-01-11T06:04:27;-6.70;99.90
38090;DHT22;23904;52.322;10.232;2024-01-11T06:06:52;-6.70;99.90
38090;DHT22;23904;52.322;10.232;2024-01-11T06:09:18;-6.70;99.90
38090;DHT22;23904;52.322;10.232;2024-01-11T06:11:43;-6.70;99.90
38090;DHT22;23904;52.322;10.232;2024-01-11T06:14:09;-6.70;99.90
38090;DHT22;23904;52.322;10.232;2024-01-11T06:16:34;-6.70;99.90
38090;DHT22;23904;52.322;10.232;2024-01-11T06:19:00;-6.70;99.90
38090;DHT22;23904;52.322;10.232;2024-01-11T06:21:25;-6.70;99.90
38090;DHT22;23904;52.322;10.232;2024-01-11T06:23:51;-6.80;99.90
38090;DHT22;23904;52.322;10.232;2024-01-11T06:26:17;-6.80;99.90
38090;DHT22;23904;52.322;10.232;2024-01-11T06:28:42;-6.80;99.90
38090;DHT22;23904;52.322;10.232;2024-01-11T06:31:09;-6.70;99.90
38090;DHT22;23904;52.322;10.232;2024-01-11T06:33:35;-6.80;99.90
38090;DHT22;23904;52.322;10.232;2024-01-11T06:36:04;-6.70;99.90
38090;DHT22;23904;52.322;10.232;2024-01-11T06:38:31;-6.80;99.90
38090;DHT22;23904;52.322;10.232;2024-01-11T06:40:57;-6.80;99.90
38090;DHT22;23904;52.322;10.232;2024-01-11T06:43:22;-6.80;99.90
38090;DHT22;23904;52.322;10.232;2024-01-11T06:45:48;-6.80;99.90
38090;DHT22;23904;52.322;10.232;2024-01-11T06:48:13;-6.90;99.90
38090;DHT22;23904;52.322;10.232;2024-01-11T06:50:39;-6.90;99.90
38090;DHT22;23904;52.322;10.232;2024-01-11T06:53:04;-6.80;99.90
38090;DHT22;23904;52.322;10.232;2024-01-11T06:55:30;-6.80;99.90
38090;DHT22;23904;52.322;10.232;2024-01-11T06:57:55;-6.80;99.90
38090;DHT22;23904;52.322;10.232;2024-01-11T07:00:23;-6.70;99.90
38090;DHT22;23904;52.322;10.232;2024-01-11T07:02:48;-6.70;99.90
38090;DHT22;23904;52.322;10.232;2024-01-11T07:05:14;-6.70;99.90
38090;DHT22;23904;52.322;10.232;2024-01-11T07:07:39;-6.70;99.90
38090;DHT22;23904;52.322;10.232;2024-01-11T07:10:05;-6.60;99.90
38090;DHT22;23904;52.322;10.232;2024-01-11T07:12:32;-6.50;99.90
38090;DHT22;23904;52.322;10.232;2024-01-11T07:14:58;-6.40;99.90
38090;DHT22;23904;52.322;10.232;2024-01-11T07:17:24;-6.40;99.90
38090;DHT22;23904;52.322;10.232;2024-01-11T07:19:50;-6.40;99.90
38090;DHT22;23904;52.322;10.232;2024-01-11T07:22:16;-6.40;99.90
38090;DHT22;23904;52.322;10.232;2024-01-11T07:24:41;-6.40;99.90
38090;DHT22;23904;52.322;10.232;2024-01-11T07:27:07;-6.40;99.90
38090;DHT22;23904;52.322;10.232;2024-01-11T07:29:33;-6.40;99.90
38090;DHT22;23904;52.322;10.232;2024-01-11T07:31:59;-6.40;99.90
38090;DHT22;23904;52.322;10.232;2024-01-11T07:34:26;-6.40;99.90
38090;DHT22;23904;52.322;10.232;2024-01-11T07:36:52;-6.40;99.90
38090;DHT22;23904;52.322;10.232;2024-01-11T07:39:19;-6.40;99.90
38090;DHT22;23904;52.322;10.232;2024-01-11T07:41:44;-6.30;99.90
38090;DHT22;23904;52.322;10.232;2024-01-11T07:44:10;-6.30;99.90
38090;DHT22;23904;52.322;10.232;2024-01-11T07:46:36;-6.40;99.90
38090;DHT22;23904;52.322;10.232;2024-01-11T07:49:04;-6.40;99.90
38090;DHT22;23904;52.322;10.232;2024-01-11T07:51:30;-6.50;99.90
38090;DHT22;23904;52.322;10.232;2024-01-11T07:53:56;-6.50;99.90
38090;DHT22;23904;52.322;10.232;2024-01-11T07:56:22;-6.60;99.90
38090;DHT22;23904;52.322;10.232;2024-01-11T07:58:47;-6.60;99.90
38090;DHT22;23904;52.322;10.232;2024-01-11T08:01:13;-6.60;99.90
38090;DHT22;23904;52.322;10.232;2024-01-11T08:03:41;-6.60;99.90
38090;DHT22;23904;52.322;10.232;2024-01-11T08:06:07;-6.60;99.90
38090;DHT22;23904;52.322;10.232;2024-01-11T08:08:36;-6.60;99.90
38090;DHT22;23904;52.322;10.232;2024-01-11T08:11:04;-6.60;99.90
38090;DHT22;23904;52.322;10.232;2024-01-11T08:13:32;-6.70;99.90
38090;DHT22;23904;52.322;10.232;2024-01-11T08:15:57;-6.60;99.90
38090;DHT22;23904;52.322;10.232;2024-01-11T08:18:23;-6.50;99.90
38090;DHT22;23904;52.322;10.232;2024-01-11T08:20:49;-6.50;99.90
38090;DHT22;23904;52.322;10.232;2024-01-11T08:23:14;-6.40;99.90
38090;DHT22;23904;52.322;10.232;2024-01-11T08:25:40;-6.40;99.90
38090;DHT22;23904;52.322;10.232;2024-01-11T08:28:06;-6.40;99.90
38090;DHT22;23904;52.322;10.232;2024-01-11T08:30:32;-6.30;99.90
38090;DHT22;23904;52.322;10.232;2024-01-11T08:32:57;-6.20;99.90
38090;DHT22;23904;52.322;10.232;2024-01-11T08:35:23;-6.10;99.90
38090;DHT22;23904;52.322;10.232;2024-01-11T08:37:48;-6.10;99.90
38090;DHT22;23904;52.322;10.232;2024-01-11T08:40:14;-6.10;99.90
38090;DHT22;23904;52.322;10.232;2024-01-11T08:42:41;-6.00;99.90
38090;DHT22;23904;52.322;10.232;2024-01-11T08:45:08;-6.00;99.90
38090;DHT22;23904;52.322;10.232;2024-01-11T08:47:34;-6.10;99.90
38090;DHT22;23904;52.322;10.232;2024-01-11T08:50:00;-6.00;99.90
38090;DHT22;23904;52.322;10.232;2024-01-11T08:52:26;-6.00;99.90
38090;DHT22;23904;52.322;10.232;2024-01-11T08:54:52;-6.00;99.90
38090;DHT22;23904;52.322;10.232;2024-01-11T08:57:17;-5.90;99.90
38090;DHT22;23904;52.322;10.232;2024-01-11T08:59:43;-5.90;99.90
38090;DHT22;23904;52.322;10.232;2024-01-11T09:02:09;-6.00;99.90
38090;DHT22;23904;52.322;10.232;2024-01-11T09:04:36;-6.00;99.90
38090;DHT22;23904;52.322;10.232;2024-01-11T09:07:01;-5.80;99.90
38090;DHT22;23904;52.322;10.232;2024-01-11T09:09:27;-5.90;99.90
38090;DHT22;23904;52.322;10.232;2024-01-11T09:11:53;-5.80;99.90
38090;DHT22;23904;52.322;10.232;2024-01-11T09:14:18;-5.60;99.90
38090;DHT22;23904;52.322;10.232;2024-01-11T09:16:44;-5.20;99.90
38090;DHT22;23904;52.322;10.232;2024-01-11T09:19:11;-4.90;99.90
38090;DHT22;23904;52.322;10.232;2024-01-11T09:21:37;-4.70;99.90
38090;DHT22;23904;52.322;10.232;2024-01-11T09:24:03;-4.60;99.90
38090;DHT22;23904;52.322;10.232;2024-01-11T09:26:28;-4.60;99.90
38090;DHT22;23904;52.322;10.232;2024-01-11T09:28:54;-4.60;99.90
38090;DHT22;23904;52.322;10.232;2024-01-11T09:31:19;-4.60;99.90
38090;DHT22;23904;52.322;10.232;2024-01-11T09:33:45;-4.30;99.90
38090;DHT22;23904;52.322;10.232;2024-01-11T09:36:12;-4.10;99.90
38090;DHT22;23904;52.322;10.232;2024-01-11T09:38:38;-3.90;99.90
38090;DHT22;23904;52.322;10.232;2024-01-11T09:41:09;-3.80;99.90
38090;DHT22;23904;52.322;10.232;2024-01-11T09:43:36;-3.90;99.90
38090;DHT22;23904;52.322;10.232;2024-01-11T09:46:04;-4.00;99.90
38090;DHT22;23904;52.322;10.232;2024-01-11T09:48:35;-4.20;99.90
38090;DHT22;23904;52.322;10.232;2024-01-11T09:51:06;-4.30;99.90
38090;DHT22;23904;52.322;10.232;2024-01-11T09:53:35;-4.30;99.90
38090;DHT22;23904;52.322;10.232;2024-01-11T09:56:02;-4.30;99.90
38090;DHT22;23904;52.322;10.232;2024-01-11T09:58:34;-4.30;99.90
38090;DHT22;23904;52.322;10.232;2024-01-11T10:01:02;-4.30;99.90
38090;DHT22;23904;52.322;10.232;2024-01-11T10:03:28;-4.30;99.90
38090;DHT22;23904;52.322;10.232;2024-01-11T10:05:58;-4.30;99.90
38090;DHT22;23904;52.322;10.232;2024-01-11T10:08:25;-4.20;99.90
38090;DHT22;23904;52.322;10.232;2024-01-11T10:10:51;-4.20;99.90
38090;DHT22;23904;52.322;10.232;2024-01-11T10:13:16;-4.20;99.90
38090;DHT22;23904;52.322;10.232;2024-01-11T10:15:45;-4.20;99.90
38090;DHT22;23904;52.322;10.232;2024-01-11T10:18:11;-4.10;99.90
38090;DHT22;23904;52.322;10.232;2024-01-11T10:20:37;-4.00;99.90
38090;DHT22;23904;52.322;10.232;2024-01-11T10:23:03;-4.00;99.90
38090;DHT22;23904;52.322;10.232;2024-01-11T10:25:29;-3.80;99.90
38090;DHT22;23904;52.322;10.232;2024-01-11T10:27:55;-3.80;99.90
38090;DHT22;23904;52.322;10.232;2024-01-11T10:30:20;-4.00;99.90
38090;DHT22;23904;52.322;10.232;2024-01-11T10:32:48;-4.00;99.90
38090;DHT22;23904;52.322;10.232;2024-01-11T10:35:15;-3.90;99.90
38090;DHT22;23904;52.322;10.232;2024-01-11T10:37:43;-3.90;99.90
38090;DHT22;23904;52.322;10.232;2024-01-11T10:40:10;-3.80;99.90
38090;DHT22;23904;52.322;10.232;2024-01-11T10:42:45;-3.70;99.90
38090;DHT22;23904;52.322;10.232;2024-01-11T10:45:17;-3.60;99.90
38090;DHT22;23904;52.322;10.232;2024-01-11T10:47:50;-3.50;99.90
38090;DHT22;23904;52.322;10.232;2024-01-11T10:50:17;-3.60;99.90
38090;DHT22;23904;52.322;10.232;2024-01-11T10:55:33;-3.70;99.90
38090;DHT22;23904;52.322;10.232;2024-01-11T10:58:00;-3.70;99.90
38090;DHT22;23904;52.322;10.232;2024-01-11T11:00:28;-3.70;99.90
38090;DHT22;23904;52.322;10.232;2024-01-11T11:02:55;-3.70;99.90
38090;DHT22;23904;52.322;10.232;2024-01-11T11:05:22;-3.60;99.90
38090;DHT22;23904;52.322;10.232;2024-01-11T11:07:51;-3.50;99.90
38090;DHT22;23904;52.322;10.232;2024-01-11T11:10:18;-3.50;99.90
38090;DHT22;23904;52.322;10.232;2024-01-11T11:12:45;-3.50;99.90
38090;DHT22;23904;52.322;10.232;2024-01-11T11:15:12;-3.50;99.90
38090;DHT22;23904;52.322;10.232;2024-01-11T11:17:40;-3.50;99.90
38090;DHT22;23904;52.322;10.232;2024-01-11T11:20:10;-3.50;99.90
38090;DHT22;23904;52.322;10.232;2024-01-11T11:22:40;-3.50;99.90
38090;DHT22;23904;52.322;10.232;2024-01-11T11:25:09;-3.40;99.90
38090;DHT22;23904;52.322;10.232;2024-01-11T11:27:38;-3.40;99.90
38090;DHT22;23904;52.322;10.232;2024-01-11T11:30:04;-3.40;99.90
38090;DHT22;23904;52.322;10.232;2024-01-11T11:32:38;-3.40;99.90
38090;DHT22;23904;52.322;10.232;2024-01-11T11:35:05;-3.50;99.90
38090;DHT22;23904;52.322;10.232;2024-01-11T11:37:31;-3.50;99.90
38090;DHT22;23904;52.322;10.232;2024-01-11T11:39:59;-3.40;99.90
38090;DHT22;23904;52.322;10.232;2024-01-11T11:42:25;-3.40;99.90
38090;DHT22;23904;52.322;10.232;2024-01-11T11:44:51;-3.30;99.90
38090;DHT22;23904;52.322;10.232;2024-01-11T11:47:21;-3.30;99.90
38090;DHT22;23904;52.322;10.232;2024-01-11T11:50:10;-3.20;99.90
38090;DHT22;23904;52.322;10.232;2024-01-11T11:52:38;-3.20;99.90
38090;DHT22;23904;52.322;10.232;2024-01-11T11:55:05;-3.10;99.90
38090;DHT22;23904;52.322;10.232;2024-01-11T11:57:33;-3.00;99.90
38090;DHT22;23904;52.322;10.232;2024-01-11T11:59:59;-2.90;99.90
38090;DHT22;23904;52.322;10.232;2024-01-11T12:02:26;-2.80;99.90
38090;DHT22;23904;52.322;10.232;2024-01-11T12:04:52;-2.80;99.90
38090;DHT22;23904;52.322;10.232;2024-01-11T12:07:20;-2.70;99.90
38090;DHT22;23904;52.322;10.232;2024-01-11T12:09:46;-2.70;99.90
38090;DHT22;23904;52.322;10.232;2024-01-11T12:12:13;-2.70;99.90
38090;DHT22;23904;52.322;10.232;2024-01-11T12:14:38;-2.70;99.90
38090;DHT22;23904;52.322;10.232;2024-01-11T12:17:06;-2.70;99.90
38090;DHT22;23904;52.322;10.232;2024-01-11T12:19:32;-2.60;99.90
38090;DHT22;23904;52.322;10.232;2024-01-11T12:21:58;-2.50;99.90
38090;DHT22;23904;52.322;10.232;2024-01-11T12:24:24;-2.50;99.90
38090;DHT22;23904;52.322;10.232;2024-01-11T12:26:50;-2.50;99.90
38090;DHT22;23904;52.322;10.232;2024-01-11T12:29:19;-2.50;99.90
38090;DHT22;23904;52.322;10.232;2024-01-11T12:31:45;-2.50;99.90
38090;DHT22;23904;52.322;10.232;2024-01-11T12:34:14;-2.50;99.90
38090;DHT22;23904;52.322;10.232;2024-01-11T12:36:40;-2.50;99.90
38090;DHT22;23904;52.322;10.232;2024-01-11T12:39:06;-2.50;99.90
38090;DHT22;23904;52.322;10.232;2024-01-11T12:41:32;-2.50;99.90
38090;DHT22;23904;52.322;10.232;2024-01-11T12:43:58;-2.40;99.90
38090;DHT22;23904;52.322;10.232;2024-01-11T12:46:24;-2.40;99.90
38090;DHT22;23904;52.322;10.232;2024-01-11T12:48:50;-2.30;99.90
38090;DHT22;23904;52.322;10.232;2024-01-11T12:51:16;-2.30;99.90
38090;DHT22;23904;52.322;10.232;2024-01-11T12:53:51;-2.40;99.90
38090;DHT22;23904;52.322;10.232;2024-01-11T12:56:19;-2.30;99.90
38090;DHT22;23904;52.322;10.232;2024-01-11T12:58:46;-2.40;99.90
38090;DHT22;23904;52.322;10.232;2024-01-11T13:01:12;-2.30;99.90
38090;DHT22;23904;52.322;10.232;2024-01-11T13:03:43;-2.30;99.90
38090;DHT22;23904;52.322;10.232;2024-01-11T13:06:11;-2.30;99.90
38090;DHT22;23904;52.322;10.232;2024-01-11T13:08:37;-2.30;99.90
38090;DHT22;23904;52.322;10.232;2024-01-11T13:11:05;-2.20;99.90
38090;DHT22;23904;52.322;10.232;2024-01-11T13:13:33;-2.20;99.90
38090;DHT22;23904;52.322;10.232;2024-01-11T13:15:59;-2.20;99.90
38090;DHT22;23904;52.322;10.232;2024-01-11T13:18:25;-2.10;99.90
38090;DHT22;23904;52.322;10.232;2024-01-11T13:20:50;-2.10;99.90
38090;DHT22;23904;52.322;10.232;2024-01-11T13:23:20;-2.10;99.90
38090;DHT22;23904;52.322;10.232;2024-01-11T13:25:47;-2.10;99.90
38090;DHT22;23904;52.322;10.232;2024-01-11T13:28:14;-2.10;99.90
38090;DHT22;23904;52.322;10.232;2024-01-11T13:30:42;-2.10;99.90
38090;DHT22;23904;52.322;10.232;2024-01-11T13:33:09;-2.00;99.90
38090;DHT22;23904;52.322;10.232;2024-01-11T13:35:40;-2.00;99.90
38090;DHT22;23904;52.322;10.232;2024-01-11T13:38:09;-2.00;99.90
38090;DHT22;23904;52.322;10.232;2024-01-11T13:40:35;-1.90;99.90
38090;DHT22;23904;52.322;10.232;2024-01-11T13:43:01;-1.90;99.90
38090;DHT22;23904;52.322;10.232;2024-01-11T13:45:29;-1.90;99.90
38090;DHT22;23904;52.322;10.232;2024-01-11T13:47:58;-1.90;99.90
38090;DHT22;23904;52.322;10.232;2024-01-11T13:50:25;-1.90;99.90
38090;DHT22;23904;52.322;10.232;2024-01-11T13:52:50;-1.80;99.90
38090;DHT22;23904;52.322;10.232;2024-01-11T13:55:16;-1.80;99.90
38090;DHT22;23904;52.322;10.232;2024-01-11T13:57:43;-1.70;99.90
38090;DHT22;23904;52.322;10.232;2024-01-11T14:00:10;-1.80;99.90
38090;DHT22;23904;52.322;10.232;2024-01-11T14:02:37;-1.70;99.90
38090;DHT22;23904;52.322;10.232;2024-01-11T14:05:03;-1.70;99.90
38090;DHT22;23904;52.322;10.232;2024-01-11T14:07:31;-1.70;99.90
38090;DHT22;23904;52.322;10.232;2024-01-11T14:09:57;-1.70;99.90
38090;DHT22;23904;52.322;10.232;2024-01-11T14:12:23;-1.70;99.90
38090;DHT22;23904;52.322;10.232;2024-01-11T14:14:48;-1.70;99.90
38090;DHT22;23904;52.322;10.232;2024-01-11T14:17:14;-1.70;99.90
38090;DHT22;23904;52.322;10.232;2024-01-11T14:19:40;-1.70;99.90
38090;DHT22;23904;52.322;10.232;2024-01-11T14:22:05;-1.60;99.90
38090;DHT22;23904;52.322;10.232;2024-01-11T14:24:31;-1.60;99.90
38090;DHT22;23904;52.322;10.232;2024-01-11T14:26:56;-1.60;99.90
38090;DHT22;23904;52.322;10.232;2024-01-11T14:29:22;-1.50;99.90
38090;DHT22;23904;52.322;10.232;2024-01-11T14:31:47;-1.50;99.90
38090;DHT22;23904;52.322;10.232;2024-01-11T14:34:13;-1.50;99.90
38090;DHT22;23904;52.322;10.232;2024-01-11T14:36:39;-1.50;99.90
38090;DHT22;23904;52.322;10.232;2024-01-11T14:39:04;-1.40;99.90
38090;DHT22;23904;52.322;10.232;2024-01-11T14:41:30;-1.40;99.90
38090;DHT22;23904;52.322;10.232;2024-01-11T14:43:57;-1.40;99.90
38090;DHT22;23904;52.322;10.232;2024-01-11T14:46:22;-1.40;99.90
38090;DHT22;23904;52.322;10.232;2024-01-11T14:48:48;-1.40;99.90
38090;DHT22;23904;52.322;10.232;2024-01-11T14:51:14;-1.40;99.90
38090;DHT22;23904;52.322;10.232;2024-01-11T14:53:40;-1.40;99.90
38090;DHT22;23904;52.322;10.232;2024-01-11T14:56:05;-1.40;99.90
38090;DHT22;23904;52.322;10.232;2024-01-11T14:58:31;-1.40;99.90
38090;DHT22;23904;52.322;10.232;2024-01-11T15:00:56;-1.40;99.90
38090;DHT22;23904;52.322;10.232;2024-01-11T15:03:23;-1.40;99.90
38090;DHT22;23904;52.322;10.232;2024-01-11T15:05:48;-1.30;99.90
38090;DHT22;23904;52.322;10.232;2024-01-11T15:08:14;-1.30;99.90
38090;DHT22;23904;52.322;10.232;2024-01-11T15:10:40;-1.30;99.90
38090;DHT22;23904;52.322;10.232;2024-01-11T15:13:07;-1.30;99.90